17 | 04 | 2021

Daten Vortag

Klimadaten von 10m Höhe gemessen, Station  

Datum / Zeit Intervall min Luftfeuchte % Temperatur °C absolut Luftdruck hPa Wind m/s Windbö m/s Richtung Relative Luftdruck hPa Taupunkt °C Windchill °C Niederschlag mm
16-04-2021 00:15 5 77 1.0 1027.4 0.0 0.0 NW 1028.7 -2.6 1.0 0.0
16-04-2021 00:20 5 78 1.1 1027.2 0.0 0.0 NW 1028.5 -2.3 1.1 0.0
16-04-2021 00:25 5 78 1.2 1027.2 0.0 0.0 NW 1028.5 -2.2 1.2 0.0
16-04-2021 00:30 5 78 1.2 1027.2 0.0 0.0 NW 1028.5 -2.2 1.2 0.0
16-04-2021 00:35 5 79 1.3 1027.1 0.0 0.0 NW 1028.4 -1.9 1.3 0.0
16-04-2021 00:40 5 79 1.4 1027.2 0.0 0.0 NW 1028.5 -1.8 1.4 0.0
16-04-2021 00:45 5 80 1.5 1027.1 0.0 0.0 NW 1028.4 -1.6 1.5 0.0
16-04-2021 00:50 5 80 1.5 1027.2 0.0 0.0 NW 1028.5 -1.6 1.5 0.0
16-04-2021 00:55 5 80 1.6 1027.0 0.0 0.0 NW 1028.3 -1.5 1.6 0.0
16-04-2021 01:00 5 80 1.6 1027.1 0.0 0.0 NW 1028.4 -1.5 1.6 0.0
16-04-2021 01:05 5 80 1.6 1027.0 0.0 0.0 NW 1028.3 -1.5 1.6 0.0
16-04-2021 01:10 5 80 1.7 1027.0 0.0 0.0 NW 1028.3 -1.4 1.7 0.0
16-04-2021 01:15 5 80 1.7 1027.0 0.0 0.0 NW 1028.3 -1.4 1.7 0.0
16-04-2021 01:20 5 80 1.8 1026.9 0.0 0.0 NW 1028.2 -1.3 1.8 0.0
16-04-2021 01:25 5 80 1.9 1026.8 0.0 0.0 NW 1028.1 -1.2 1.9 0.0
16-04-2021 01:30 5 80 2.0 1026.9 0.0 0.0 NW 1028.2 -1.1 2.0 0.0
16-04-2021 01:35 5 80 2.0 1027.0 0.0 0.0 NW 1028.3 -1.1 2.0 0.0
16-04-2021 01:40 5 80 2.0 1027.0 0.0 0.0 NW 1028.3 -1.1 2.0 0.0
16-04-2021 01:45 5 80 2.1 1026.6 0.0 0.0 NW 1027.9 -1.0 2.1 0.0
16-04-2021 01:50 5 80 2.5 1026.9 0.0 1.1 N 1028.2 -0.6 2.5 0.0
16-04-2021 01:55 5 80 2.8 1026.7 1.1 2.5 N 1028.0 -0.3 2.8 0.0
16-04-2021 02:00 5 78 3.1 1026.7 0.0 0.0 N 1028.0 -0.4 3.1 0.0
16-04-2021 02:05 5 78 3.1 1026.7 0.0 0.0 N 1028.0 -0.4 3.1 0.0
16-04-2021 02:10 5 72 3.8 1026.5 0.0 1.1 NE 1027.8 -0.8 3.8 0.0
16-04-2021 02:15 5 71 4.0 1026.7 0.0 1.1 N 1028.0 -0.8 4.0 0.0
16-04-2021 02:20 5 70 4.2 1026.8 0.0 0.0 N 1028.1 -0.8 4.2 0.0
16-04-2021 02:25 5 69 4.4 1026.6 1.1 5.0 N 1027.9 -0.8 4.4 0.0
16-04-2021 02:30 5 67 4.6 1026.6 3.6 5.0 NE 1027.9 -1.0 4.6 0.0
16-04-2021 02:35 5 66 4.7 1026.5 1.1 2.5 NE 1027.8 -1.1 4.7 0.0
16-04-2021 02:40 5 65 4.8 1026.5 0.0 0.0 NW 1027.8 -1.2 4.8 0.0
16-04-2021 02:45 5 65 4.8 1026.6 2.5 3.6 NW 1027.9 -1.2 4.8 0.0
16-04-2021 02:50 5 65 4.9 1026.7 0.0 1.1 N 1028.0 -1.1 4.9 0.0
16-04-2021 02:55 5 64 5.0 1026.5 3.6 5.0 N 1027.8 -1.2 5.0 0.0
16-04-2021 03:00 5 64 5.1 1026.7 2.5 3.6 NNE 1028.0 -1.1 5.1 0.0
16-04-2021 03:05 5 64 5.1 1026.5 2.5 3.6 NNE 1027.8 -1.1 5.1 0.0
16-04-2021 03:10 5 63 5.1 1026.4 1.1 2.5 N 1027.7 -1.4 5.1 0.0
16-04-2021 03:15 5 63 5.0 1026.4 1.1 3.6 W 1027.7 -1.5 5.0 0.0
16-04-2021 03:20 5 64 5.0 1026.2 3.6 5.0 NE 1027.5 -1.2 5.0 0.0
16-04-2021 03:25 5 64 4.9 1026.5 2.5 3.6 NNW 1027.8 -1.3 4.9 0.0
16-04-2021 03:30 5 64 4.9 1026.3 1.1 2.5 NW 1027.6 -1.3 4.9 0.0
16-04-2021 03:35 5 65 4.8 1026.4 1.1 2.5 NE 1027.7 -1.2 4.8 0.0
16-04-2021 03:40 5 65 4.7 1026.4 0.0 1.1 SW 1027.7 -1.3 4.7 0.0
16-04-2021 03:45 5 65 4.6 1026.1 0.0 1.1 N 1027.4 -1.4 4.6 0.0
16-04-2021 03:50 5 66 4.5 1026.2 1.1 2.5 NW 1027.5 -1.3 4.5 0.0
16-04-2021 03:55 5 66 4.4 1026.4 0.0 1.1 W 1027.7 -1.4 4.4 0.0
16-04-2021 04:00 5 66 4.3 1026.1 1.1 2.5 N 1027.4 -1.5 4.3 0.0
16-04-2021 04:05 5 66 4.3 1026.2 1.1 2.5 N 1027.5 -1.5 4.3 0.0
16-04-2021 04:10 5 67 4.4 1026.1 1.1 2.5 NE 1027.4 -1.2 4.4 0.0
16-04-2021 04:15 5 67 4.5 1026.0 1.1 2.5 N 1027.3 -1.1 4.5 0.0
16-04-2021 04:20 5 67 4.6 1026.2 0.0 1.1 NW 1027.5 -1.0 4.6 0.0
16-04-2021 04:25 5 67 4.7 1026.2 1.1 2.5 NE 1027.5 -0.9 4.7 0.0
16-04-2021 04:30 5 67 4.7 1026.1 1.1 2.5 N 1027.4 -0.9 4.7 0.0
16-04-2021 04:35 5 67 4.7 1026.1 0.0 1.1 NW 1027.4 -0.9 4.7 0.0
16-04-2021 04:40 5 66 4.7 1026.1 0.0 1.1 NW 1027.4 -1.1 4.7 0.0
16-04-2021 04:45 5 67 4.6 1025.8 0.0 0.0 NW 1027.1 -1.0 4.6 0.0
16-04-2021 04:50 5 67 4.5 1026.1 1.1 2.5 NW 1027.4 -1.1 4.5 0.0
16-04-2021 04:55 5 68 4.4 1026.0 1.1 2.5 NE 1027.3 -1.0 4.4 0.0
16-04-2021 05:00 5 67 4.5 1026.0 0.0 1.1 N 1027.3 -1.1 4.5 0.0
16-04-2021 05:05 5 67 4.5 1026.0 2.5 3.6 NE 1027.3 -1.1 4.5 0.0
16-04-2021 05:10 5 66 4.6 1025.9 2.5 3.6 NE 1027.2 -1.2 4.6 0.0
16-04-2021 05:15 5 65 4.6 1025.6 1.1 2.5 N 1026.9 -1.4 4.6 0.0
16-04-2021 05:20 5 65 4.6 1025.7 1.1 2.5 N 1027.0 -1.4 4.6 0.0
16-04-2021 05:25 5 65 4.6 1025.9 2.5 3.6 N 1027.2 -1.4 4.6 0.0
16-04-2021 05:30 5 65 4.5 1026.1 0.0 1.1 NW 1027.4 -1.5 4.5 0.0
16-04-2021 05:35 5 65 4.5 1026.2 2.5 5.0 NE 1027.5 -1.5 4.5 0.0
16-04-2021 05:40 5 65 4.5 1025.9 1.1 2.5 E 1027.2 -1.5 4.5 0.0
16-04-2021 05:45 5 65 4.6 1026.0 5.0 7.2 NW 1027.3 -1.4 4.6 0.0
16-04-2021 05:50 5 65 4.6 1026.0 1.1 2.5 NW 1027.3 -1.4 4.6 0.0
16-04-2021 05:55 5 65 4.6 1026.1 0.0 0.0 W 1027.4 -1.4 4.6 0.0
16-04-2021 06:00 5 65 4.5 1026.1 1.1 2.5 NE 1027.4 -1.5 4.5 0.0
16-04-2021 06:05 5 65 4.5 1026.1 1.1 2.5 NE 1027.4 -1.5 4.5 0.0
16-04-2021 06:10 5 65 4.5 1025.9 1.1 2.5 N 1027.2 -1.5 4.5 0.0
16-04-2021 06:15 5 65 4.4 1026.1 2.5 5.0 S 1027.4 -1.6 4.4 0.0
16-04-2021 06:20 5 65 4.3 1025.9 2.5 6.1 W 1027.2 -1.7 4.3 0.0
16-04-2021 06:25 5 65 4.3 1025.8 2.5 5.0 N 1027.1 -1.7 4.3 0.0
16-04-2021 06:30 5 66 4.3 1025.8 2.5 5.0 NW 1027.1 -1.5 4.3 0.0
16-04-2021 06:35 5 66 4.4 1026.1 1.1 3.6 NW 1027.4 -1.4 4.4 0.0
16-04-2021 06:40 5 67 4.4 1026.1 0.0 1.1 NW 1027.4 -1.2 4.4 0.0
16-04-2021 06:45 5 67 4.4 1026.1 3.6 6.1 N 1027.4 -1.2 4.4 0.0
16-04-2021 06:50 5 67 4.4 1026.2 2.5 3.6 SE 1027.5 -1.2 4.4 0.0
16-04-2021 06:55 5 67 4.4 1026.3 0.0 1.1 E 1027.6 -1.2 4.4 0.0
16-04-2021 07:00 5 67 4.4 1026.4 0.0 2.5 NE 1027.7 -1.2 4.4 0.0
16-04-2021 07:05 5 67 4.4 1026.2 1.1 2.5 NE 1027.5 -1.2 4.4 0.0
16-04-2021 07:10 5 67 4.5 1026.2 2.5 3.6 N 1027.5 -1.1 4.5 0.0
16-04-2021 07:15 5 67 4.7 1026.2 5.0 6.1 E 1027.5 -0.9 4.7 0.0
16-04-2021 07:20 5 66 4.9 1026.2 3.6 6.1 W 1027.5 -0.9 4.9 0.0
16-04-2021 07:25 5 66 5.1 1026.1 2.5 3.6 NW 1027.4 -0.7 5.1 0.0
16-04-2021 07:30 5 65 5.3 1026.1 1.1 2.5 NW 1027.4 -0.7 5.3 0.0
16-04-2021 07:35 5 65 5.4 1026.4 3.6 5.0 E 1027.7 -0.6 5.4 0.0
16-04-2021 07:40 5 64 5.5 1026.3 1.1 2.5 SW 1027.6 -0.8 5.5 0.0
16-04-2021 07:45 5 64 5.6 1026.2 3.6 6.1 N 1027.5 -0.7 5.6 0.0
16-04-2021 07:50 5 64 5.7 1026.3 2.5 6.1 N 1027.6 -0.6 5.7 0.0
16-04-2021 07:55 5 64 5.8 1026.2 7.2 11.2 NW 1027.5 -0.5 4.5 0.0
16-04-2021 08:00 5 64 6.0 1026.5 1.1 2.5 NW 1027.8 -0.3 6.0 0.0
16-04-2021 08:06 6 64 6.0 1026.1 1.1 2.5 NW 1027.4 -0.3 6.0 0.0
16-04-2021 08:11 5 63 6.3 1026.4 6.1 7.2 NE 1027.7 -0.2 6.3 0.0
16-04-2021 08:16 5 64 6.5 1026.2 1.1 2.5 S 1027.5 0.2 6.5 0.0
16-04-2021 08:21 5 63 6.6 1026.1 3.6 5.0 NW 1027.4 0.1 6.6 0.0
16-04-2021 08:26 5 63 6.7 1026.2 5.0 7.2 W 1027.5 0.2 6.7 0.0
16-04-2021 08:31 5 63 7.0 1026.1 1.1 2.5 E 1027.4 0.4 7.0 0.0
16-04-2021 08:36 5 62 7.1 1026.4 5.0 6.1 N 1027.7 0.3 7.1 0.0
16-04-2021 08:41 5 63 7.3 1026.4 5.0 6.1 NW 1027.7 0.7 7.3 0.0
16-04-2021 08:46 5 62 7.3 1026.1 1.1 7.2 NE 1027.4 0.5 7.3 0.0
16-04-2021 08:51 5 62 7.4 1026.1 1.1 3.6 NW 1027.4 0.6 7.4 0.0
16-04-2021 08:56 5 59 7.5 1026.2 1.1 3.6 SW 1027.5 0.0 7.5 0.0
16-04-2021 09:01 5 59 7.6 1026.2 1.1 3.6 NE 1027.5 0.1 7.6 0.0
16-04-2021 09:06 5 59 7.7 1026.3 3.6 6.1 W 1027.6 0.2 7.7 0.0
16-04-2021 09:11 5 57 7.7 1026.1 5.0 7.2 W 1027.4 -0.3 7.7 0.0
16-04-2021 09:16 5 57 7.6 1026.3 3.6 7.2 NE 1027.6 -0.4 7.6 0.0
16-04-2021 09:21 5 59 7.7 1026.3 2.5 3.6 N 1027.6 0.2 7.7 0.0
16-04-2021 09:26 5 58 7.9 1026.2 3.6 5.0 NE 1027.5 0.2 7.9 0.0
16-04-2021 09:31 5 56 7.8 1026.3 7.2 12.2 N 1027.6 -0.4 6.6 0.0
16-04-2021 09:36 5 57 8.0 1026.1 2.5 5.0 N 1027.4 0.0 8.0 0.0
16-04-2021 09:41 5 58 8.3 1026.1 5.0 8.6 N 1027.4 0.5 8.3 0.0
16-04-2021 09:46 5 56 8.5 1026.4 8.6 15.8 NE 1027.7 0.2 6.4 0.0
16-04-2021 09:51 5 56 8.5 1026.2 8.6 13.3 E 1027.5 0.2 6.4 0.0
16-04-2021 09:56 5 55 8.4 1026.3 8.6 11.2 W 1027.6 -0.1 6.3 0.0
16-04-2021 10:01 5 55 8.6 1026.5 5.0 7.2 NE 1027.8 0.1 8.6 0.0
16-04-2021 10:06 5 55 8.6 1026.3 5.0 7.2 NE 1027.6 0.1 8.6 0.0
16-04-2021 10:11 5 56 8.1 1026.5 5.0 8.6 NWW 1027.8 -0.1 8.1 0.0
16-04-2021 10:16 5 58 8.2 1026.4 5.0 8.6 W 1027.7 0.4 8.2 0.0
16-04-2021 10:21 5 57 8.7 1026.4 6.1 8.6 SW 1027.7 0.7 8.7 0.0
16-04-2021 10:26 5 55 9.0 1026.4 6.1 8.6 NNW 1027.7 0.5 9.0 0.0
16-04-2021 10:31 5 53 9.0 1026.4 5.0 8.6 N 1027.7 -0.1 9.0 0.0
16-04-2021 10:36 5 54 9.4 1026.5 7.2 9.7 NE 1027.8 0.6 8.2 0.0
16-04-2021 10:41 5 51 9.4 1026.4 7.2 11.2 N 1027.7 -0.2 8.2 0.0
16-04-2021 10:46 5 52 9.6 1026.5 6.1 11.2 N 1027.8 0.2 9.6 0.0
16-04-2021 10:51 5 48 9.3 1026.4 8.6 12.2 N 1027.7 -1.1 7.2 0.0
16-04-2021 10:56 5 48 9.9 1026.5 8.6 11.2 NEE 1027.8 -0.6 7.9 0.0
16-04-2021 11:01 5 45 10.1 1026.2 7.2 11.2 N 1027.5 -1.3 9.0 0.0
16-04-2021 11:06 5 42 10.3 1026.1 8.6 14.8 N 1027.4 -2.0 8.3 0.0
16-04-2021 11:11 5 40 10.2 1026.2 6.1 8.6 N 1027.5 -2.8 10.2 0.0
16-04-2021 11:16 5 43 10.0 1026.1 5.0 8.6 NE 1027.4 -2.0 10.0 0.0
16-04-2021 11:21 5 44 10.3 1026.1 8.6 12.2 N 1027.4 -1.4 8.3 0.0
16-04-2021 11:26 5 43 10.3 1026.2 6.1 8.6 E 1027.5 -1.7 10.3 0.0
16-04-2021 11:31 5 44 10.7 1026.0 9.7 18.4 E 1027.3 -1.0 8.2 0.0
16-04-2021 11:36 5 44 10.8 1026.4 6.1 8.6 S 1027.7 -1.0 10.8 0.0
16-04-2021 11:41 5 45 11.2 1026.2 9.7 17.3 N 1027.5 -0.3 8.7 0.0
16-04-2021 11:46 5 44 10.7 1026.2 7.2 11.2 E 1027.5 -1.0 9.6 0.0
16-04-2021 11:51 5 46 10.8 1026.0 8.6 11.2 N 1027.3 -0.3 8.9 0.0
16-04-2021 11:56 5 45 10.9 1026.2 7.2 12.2 NW 1027.5 -0.6 9.8 0.0
16-04-2021 12:01 5 44 10.7 1026.1 11.2 15.8 NE 1027.4 -1.0 7.5 0.0
16-04-2021 12:06 5 44 10.7 1026.2 11.2 15.8 NE 1027.5 -1.0 7.5 0.0
16-04-2021 12:11 5 43 10.3 1026.1 3.6 6.1 NE 1027.4 -1.7 10.3 0.0
16-04-2021 12:16 5 42 10.6 1026.4 9.7 19.4 S 1027.7 -1.8 8.1 0.0
16-04-2021 12:21 5 42 10.7 1026.1 9.7 17.3 NE 1027.4 -1.7 8.2 0.0
16-04-2021 12:26 5 41 10.4 1026.1 6.1 9.7 NE 1027.4 -2.3 10.4 0.0
16-04-2021 12:31 5 43 10.8 1025.9 6.1 9.7 E 1027.2 -1.3 10.8 0.0
16-04-2021 12:36 5 42 10.9 1026.1 6.1 15.8 N 1027.4 -1.5 10.9 0.0
16-04-2021 12:41 5 42 10.9 1026.0 7.2 13.3 N 1027.3 -1.5 9.8 0.0
16-04-2021 12:46 5 45 11.2 1026.0 3.6 6.1 SW 1027.3 -0.3 11.2 0.0
16-04-2021 12:51 5 44 11.1 1025.8 11.2 15.8 E 1027.1 -0.7 8.0 0.0
16-04-2021 12:56 5 42 10.8 1025.7 7.2 9.7 NE 1027.0 -1.6 9.7 0.0
16-04-2021 13:01 5 42 10.3 1026.0 5.0 8.6 N 1027.3 -2.0 10.3 0.0
16-04-2021 13:06 5 44 10.3 1026.0 2.5 5.0 N 1027.3 -1.4 10.3 0.0
16-04-2021 13:11 5 43 10.5 1025.9 11.2 14.8 N 1027.2 -1.5 7.3 0.0
16-04-2021 13:16 5 43 10.7 1025.7 5.0 8.6 NE 1027.0 -1.4 10.7 0.0
16-04-2021 13:21 5 43 11.0 1025.9 5.0 7.2 N 1027.2 -1.1 11.0 0.0
16-04-2021 13:26 5 42 11.5 1025.7 3.6 7.2 NE 1027.0 -1.0 11.5 0.0
16-04-2021 13:31 5 40 11.9 1025.5 7.2 15.8 N 1026.8 -1.3 10.9 0.0
16-04-2021 13:36 5 36 11.5 1025.8 5.0 9.7 NW 1027.1 -3.0 11.5 0.0
16-04-2021 13:41 5 38 11.2 1025.8 11.2 17.3 SE 1027.1 -2.6 8.1 0.0
16-04-2021 13:46 5 39 11.1 1025.8 5.0 7.2 NW 1027.1 -2.3 11.1 0.0
16-04-2021 13:51 5 38 11.2 1025.9 6.1 12.2 NE 1027.2 -2.6 11.2 0.0
16-04-2021 13:56 5 40 11.3 1025.7 7.2 13.3 NE 1027.0 -1.8 10.2 0.0
16-04-2021 14:01 5 40 11.4 1025.8 5.0 8.6 NNE 1027.1 -1.7 11.4 0.0
16-04-2021 14:06 5 40 11.4 1025.8 5.0 8.6 NNE 1027.1 -1.7 11.4 0.0
16-04-2021 14:11 5 37 11.1 1025.7 5.0 7.2 NE 1027.0 -3.0 11.1 0.0
16-04-2021 14:16 5 37 10.5 1025.6 6.1 11.2 N 1026.9 -3.6 10.5 0.0
16-04-2021 14:21 5 39 10.2 1025.6 3.6 5.0 NE 1026.9 -3.1 10.2 0.0
16-04-2021 14:26 5 40 11.0 1025.8 7.2 11.2 NW 1027.1 -2.1 9.9 0.0
16-04-2021 14:31 5 37 11.2 1025.5 5.0 8.6 E 1026.8 -2.9 11.2 0.0
16-04-2021 14:36 5 38 11.6 1025.4 5.0 7.2 SW 1026.7 -2.2 11.6 0.0
16-04-2021 14:41 5 36 12.1 1025.8 11.2 14.8 N 1027.1 -2.5 9.1 0.0
16-04-2021 14:46 5 37 12.1 1025.8 5.0 7.2 E 1027.1 -2.1 12.1 0.0
16-04-2021 14:51 5 37 12.3 1025.8 5.0 8.6 NE 1027.1 -2.0 12.3 0.0
16-04-2021 14:56 5 36 11.9 1025.4 7.2 13.3 N 1026.7 -2.7 10.9 0.0
16-04-2021 15:01 5 39 12.0 1025.4 8.6 12.2 NW 1026.7 -1.5 10.2 0.0
16-04-2021 15:06 5 38 11.5 1025.7 8.6 12.2 NE 1027.0 -2.3 9.6 0.0
16-04-2021 15:11 5 40 11.6 1025.4 7.2 9.7 SE 1026.7 -1.5 10.6 0.0
16-04-2021 15:16 5 37 11.9 1025.5 7.2 14.8 SW 1026.8 -2.3 10.9 0.0
16-04-2021 15:21 5 35 12.2 1025.4 6.1 9.7 NW 1026.7 -2.8 12.2 0.0
16-04-2021 15:26 5 33 12.6 1025.2 7.2 12.2 NE 1026.5 -3.2 11.6 0.0
16-04-2021 15:31 5 33 12.5 1025.5 7.2 11.2 NE 1026.8 -3.3 11.5 0.0
16-04-2021 15:36 5 35 12.3 1025.2 8.6 18.4 NE 1026.5 -2.7 10.5 0.0
16-04-2021 15:41 5 35 11.8 1025.3 12.2 15.8 N 1026.6 -3.2 8.3 0.0
16-04-2021 15:46 5 36 12.0 1025.4 7.2 9.7 SE 1026.7 -2.6 11.0 0.0
16-04-2021 15:51 5 36 12.0 1025.1 7.2 13.3 E 1026.4 -2.6 11.0 0.0
16-04-2021 15:56 5 37 12.2 1025.2 7.2 11.2 E 1026.5 -2.1 11.2 0.0
16-04-2021 16:01 5 35 12.1 1025.3 9.7 13.3 NE 1026.6 -2.9 9.7 0.0
16-04-2021 16:06 5 35 12.1 1025.3 9.7 13.3 NE 1026.6 -2.9 9.7 0.0
16-04-2021 16:11 5 34 12.0 1025.1 6.1 9.7 N 1026.4 -3.4 12.0 0.0
16-04-2021 16:16 5 34 12.1 1025.2 9.7 13.3 NE 1026.5 -3.3 9.7 0.0
16-04-2021 16:21 5 34 11.7 1025.1 12.2 15.8 N 1026.4 -3.6 8.2 0.0
16-04-2021 16:26 5 35 11.9 1025.2 3.6 5.0 N 1026.5 -3.1 11.9 0.0
16-04-2021 16:31 5 35 12.2 1025.1 6.1 9.7 N 1026.4 -2.8 12.2 0.0
16-04-2021 16:36 5 32 12.5 1025.0 6.1 7.2 W 1026.3 -3.7 12.5 0.0
16-04-2021 16:41 5 31 12.7 1024.9 5.0 7.2 NWW 1026.2 -4.0 12.7 0.0
16-04-2021 16:46 5 30 12.6 1024.8 6.1 8.6 NE 1026.1 -4.5 12.6 0.0
16-04-2021 16:51 5 30 12.6 1024.6 8.6 12.2 NE 1025.9 -4.5 10.8 0.0
16-04-2021 16:56 5 32 12.8 1025.0 6.1 11.2 S 1026.3 -3.5 12.8 0.0
16-04-2021 17:01 5 30 12.5 1025.0 6.1 9.7 SW 1026.3 -4.6 12.5 0.0
16-04-2021 17:06 5 30 12.6 1024.9 2.5 3.6 N 1026.2 -4.5 12.6 0.0
16-04-2021 17:11 5 30 12.9 1024.9 6.1 11.2 S 1026.2 -4.2 12.9 0.0
16-04-2021 17:16 5 26 12.8 1024.6 6.1 9.7 NE 1025.9 -6.2 12.8 0.0
16-04-2021 17:21 5 28 13.2 1025.1 3.6 5.0 N 1026.4 -4.9 13.2 0.0
16-04-2021 17:26 5 28 13.3 1024.6 2.5 3.6 S 1025.9 -4.8 13.3 0.0
16-04-2021 17:31 5 22 13.0 1024.7 7.2 14.8 NW 1026.0 -8.2 12.0 0.0
16-04-2021 17:36 5 22 12.9 1024.9 6.1 9.7 SW 1026.2 -8.3 12.9 0.0
16-04-2021 17:41 5 26 13.0 1024.7 2.5 5.0 W 1026.0 -6.1 13.0 0.0
16-04-2021 17:46 5 24 13.0 1024.9 2.5 6.1 NW 1026.2 -7.1 13.0 0.0
16-04-2021 17:51 5 24 13.3 1024.9 3.6 5.0 SE 1026.2 -6.8 13.3 0.0
16-04-2021 17:56 5 24 13.1 1024.8 3.6 6.1 N 1026.1 -7.0 13.1 0.0
16-04-2021 18:01 5 26 12.9 1024.8 7.2 11.2 NE 1026.1 -6.1 11.9 0.0
16-04-2021 18:06 5 26 12.9 1024.9 7.2 11.2 NE 1026.2 -6.1 11.9 0.0
16-04-2021 18:11 5 26 12.7 1025.1 3.6 7.2 N 1026.4 -6.3 12.7 0.0
16-04-2021 18:16 5 28 12.6 1024.8 5.0 8.6 NE 1026.1 -5.4 12.6 0.0
16-04-2021 18:21 5 31 12.3 1024.6 3.6 6.1 NE 1025.9 -4.3 12.3 0.0
16-04-2021 18:26 5 31 12.5 1024.6 3.6 6.1 NWW 1025.9 -4.2 12.5 0.0
16-04-2021 18:31 5 32 12.3 1024.6 3.6 5.0 NE 1025.9 -3.9 12.3 0.0
16-04-2021 18:36 5 31 12.0 1024.9 2.5 6.1 NE 1026.2 -4.6 12.0 0.0
16-04-2021 18:41 5 31 12.3 1024.9 2.5 2.5 N 1026.2 -4.3 12.3 0.0
16-04-2021 18:46 5 32 12.4 1024.8 1.1 2.5 E 1026.1 -3.8 12.4 0.0
16-04-2021 18:51 5 31 12.8 1024.9 1.1 2.5 W 1026.2 -3.9 12.8 0.0
16-04-2021 18:56 5 30 12.8 1024.8 1.1 2.5 W 1026.1 -4.3 12.8 0.0
16-04-2021 19:01 5 31 12.4 1024.8 3.6 6.1 NE 1026.1 -4.2 12.4 0.0
16-04-2021 19:06 5 31 12.1 1024.6 1.1 2.5 NE 1025.9 -4.5 12.1 0.0
16-04-2021 19:11 5 32 11.9 1024.7 0.0 1.1 E 1026.0 -4.3 11.9 0.0
16-04-2021 19:16 5 32 11.7 1024.8 3.6 5.0 NE 1026.1 -4.4 11.7 0.0
16-04-2021 19:21 5 32 11.3 1024.6 0.0 0.0 N 1025.9 -4.8 11.3 0.0
16-04-2021 19:26 5 35 11.1 1024.6 2.5 3.6 N 1025.9 -3.8 11.1 0.0
16-04-2021 19:31 5 38 11.0 1024.8 3.6 6.1 NW 1026.1 -2.8 11.0 0.0
16-04-2021 19:36 5 40 10.8 1024.6 1.1 2.5 NW 1025.9 -2.3 10.8 0.0
16-04-2021 19:41 5 42 10.6 1024.8 1.1 2.5 NW 1026.1 -1.8 10.6 0.0
16-04-2021 19:46 5 43 10.3 1024.8 1.1 1.1 W 1026.1 -1.7 10.3 0.0
16-04-2021 19:51 5 42 10.1 1024.7 2.5 3.6 NW 1026.0 -2.2 10.1 0.0
16-04-2021 19:56 5 43 9.8 1024.8 1.1 2.5 NW 1026.1 -2.2 9.8 0.0
16-04-2021 20:01 5 43 9.5 1024.9 1.1 2.5 W 1026.2 -2.4 9.5 0.0
16-04-2021 20:06 5 44 8.9 1024.6 0.0 1.1 SW 1025.9 -2.7 8.9 0.0
16-04-2021 20:11 5 46 8.4 1024.9 1.1 2.5 N 1026.2 -2.5 8.4 0.0
16-04-2021 20:16 5 49 8.0 1025.0 1.1 2.5 N 1026.3 -2.1 8.0 0.0
16-04-2021 20:21 5 50 7.6 1024.9 1.1 2.5 N 1026.2 -2.2 7.6 0.0
16-04-2021 20:26 5 51 7.5 1024.9 1.1 2.5 NW 1026.2 -2.0 7.5 0.0
16-04-2021 20:31 5 56 7.4 1024.8 1.1 2.5 NW 1026.1 -0.8 7.4 0.0
16-04-2021 20:36 5 56 7.4 1025.0 0.0 1.1 W 1026.3 -0.8 7.4 0.0
16-04-2021 20:41 5 57 7.4 1024.8 1.1 2.5 NE 1026.1 -0.6 7.4 0.0
16-04-2021 20:46 5 57 7.4 1025.0 0.0 2.5 NW 1026.3 -0.6 7.4 0.0
16-04-2021 20:51 5 57 7.3 1025.1 1.1 3.6 W 1026.4 -0.6 7.3 0.0
16-04-2021 20:56 5 56 7.3 1024.9 0.0 1.1 N 1026.2 -0.9 7.3 0.0
16-04-2021 21:01 5 56 7.3 1025.1 0.0 2.5 N 1026.4 -0.9 7.3 0.0
16-04-2021 21:06 5 56 7.3 1025.0 2.5 3.6 W 1026.3 -0.9 7.3 0.0
16-04-2021 21:11 5 57 7.3 1025.0 0.0 0.0 W 1026.3 -0.6 7.3 0.0
16-04-2021 21:16 5 59 7.2 1025.0 0.0 0.0 W 1026.3 -0.3 7.2 0.0
16-04-2021 21:21 5 60 7.1 1025.0 0.0 0.0 W 1026.3 -0.1 7.1 0.0
16-04-2021 21:26 5 60 7.0 1025.0 0.0 1.1 W 1026.3 -0.2 7.0 0.0
16-04-2021 21:31 5 61 6.9 1024.9 0.0 1.1 W 1026.2 -0.1 6.9 0.0
16-04-2021 21:36 5 62 6.8 1025.0 0.0 0.0 W 1026.3 0.0 6.8 0.0
16-04-2021 21:41 5 63 6.7 1025.2 0.0 0.0 NWW 1026.5 0.2 6.7 0.0
16-04-2021 21:46 5 64 6.7 1024.8 0.0 0.0 W 1026.1 0.4 6.7 0.0
16-04-2021 21:51 5 64 6.6 1024.8 0.0 0.0 W 1026.1 0.3 6.6 0.0
16-04-2021 21:56 5 65 6.6 1024.9 0.0 1.1 W 1026.2 0.5 6.6 0.0
16-04-2021 22:01 5 66 6.6 1024.7 0.0 1.1 W 1026.0 0.7 6.6 0.0
16-04-2021 22:06 5 66 6.6 1024.8 0.0 0.0 W 1026.1 0.7 6.6 0.0
16-04-2021 22:11 5 66 6.5 1024.9 1.1 2.5 NW 1026.2 0.6 6.5 0.0
16-04-2021 22:16 5 67 6.5 1024.9 0.0 0.0 NW 1026.2 0.8 6.5 0.0
16-04-2021 22:21 5 67 6.5 1024.6 1.1 2.5 W 1025.9 0.8 6.5 0.0
16-04-2021 22:26 5 67 6.4 1024.7 0.0 0.0 W 1026.0 0.7 6.4 0.0
16-04-2021 22:31 5 67 6.4 1024.5 0.0 0.0 W 1025.8 0.7 6.4 0.0
16-04-2021 22:36 5 67 6.3 1024.6 0.0 1.1 W 1025.9 0.6 6.3 0.0
16-04-2021 22:41 5 67 6.2 1024.4 0.0 1.1 W 1025.7 0.5 6.2 0.0
16-04-2021 22:46 5 68 6.1 1024.6 0.0 1.1 NW 1025.9 0.6 6.1 0.0
16-04-2021 22:51 5 68 6.2 1024.3 0.0 1.1 NW 1025.6 0.7 6.2 0.0
16-04-2021 22:56 5 68 6.2 1024.5 0.0 0.0 N 1025.8 0.7 6.2 0.0
16-04-2021 23:01 5 68 6.2 1024.3 0.0 0.0 NW 1025.6 0.7 6.2 0.0
16-04-2021 23:06 5 68 6.2 1024.4 1.1 2.5 N 1025.7 0.7 6.2 0.0
16-04-2021 23:11 5 68 6.2 1024.3 0.0 0.0 NW 1025.6 0.7 6.2 0.0
16-04-2021 23:16 5 68 6.3 1024.2 1.1 2.5 W 1025.5 0.8 6.3 0.0
16-04-2021 23:21 5 68 6.4 1024.3 0.0 1.1 NE 1025.6 0.9 6.4 0.0
16-04-2021 23:26 5 68 6.5 1024.2 2.5 5.0 N 1025.5 1.0 6.5 0.0
16-04-2021 23:31 5 67 6.6 1024.3 2.5 3.6 W 1025.6 0.9 6.6 0.0
16-04-2021 23:36 5 67 6.7 1024.3 1.1 2.5 NWW 1025.6 1.0 6.7 0.0
16-04-2021 23:41 5 67 6.7 1024.3 2.5 3.6 NW 1025.6 1.0 6.7 0.0
16-04-2021 23:46 5 68 6.7 1024.2 0.0 1.1 NW 1025.5 1.2 6.7 0.0
16-04-2021 23:51 5 69 6.7 1024.3 0.0 1.1 SW 1025.6 1.4 6.7 0.0
16-04-2021 23:56 5 70 6.7 1024.1 0.0 1.1 W 1025.4 1.6 6.7 0.0

 

 Tagesdaten                                                                  Tabelle: 08 UHR

STATIONHÖHELUFTD.TEMP.T-MinT-MaxU%RR1RR12SSSDDFFFXWetter+WolkenBöen
UFS TW Ems 0 1030.8 6.0 5.9 6.6 --- ---- --- --- N 25 --- --- ---
UFS Deutsche Bucht 0 1030.1 6.1 5.9 6.5 83 ---- --- --- N 25 --- --- ---
Helgoland 4 1029.7 6.0 5.2 6.4 75 0.0 0 0 N 20 26 wolkenlos ---
List/Sylt 26 1030.1 4.0 1.7 7.1 79 0.0 0 0 NO 17 24 wolkenlos ---
Schleswig 43 1029.5 3.2 1.2 7.1 83 0.0 0 0 N 12 18 wolkenlos ---
Leuchtturm Kiel 5 1029.3 5.6 5.1 6.9 81 ---- --- --- O 26 35 --- ---
Kiel 27 1028.9 5.2 1.5 6.9 90 0.0 0 0 NO 12 19 --- ---
Fehmarn 3 1029.1 5.2 3.5 7.2 69 0.0 0 0 NO 19 26 --- ---
Arkona 42 1027.1 4.6 3.7 5.0 72 0.0 0 0 NO 24 42 --- ---
Norderney 11 1029.9 6.3 5.5 6.3 79 0.0 0 0 N 18 22 wolkenlos ---
Leuchtt. Alte Weser 32 1029.1 5.8 5.8 6.7 79 ---- --- --- N 25 --- --- ---
Cuxhaven 5 1029.1 5.4 5.3 7.5 71 0.0 0 0 N 6 18 --- ---
Hamburg-Flh. 11 1028.5 2.5 0.8 7.5 77 0.0 0 0 NW 7 13 bewölkt ---
Schwerin 59 1027.8 4.9 3.1 6.7 66 0.0 0 0 N 14 26 --- ---
Rostock 4 1027.9 5.6 4.7 6.6 67 0.0 0 0 N 28 33 --- ---
Greifswald 2 1026.7 4.9 4.1 6.0 71 0.0 0 0 N 19 34 --- ---
Emden 0 1029.6 2.5 0.6 6.2 93 0.0 0 0 N 6 8 wolkenlos ---
Bremen-Flh. 5 1028.6 5.4 -0.4 8.2 63 0.0 0 0 NW 5 15 bewölkt ---
Lüchow 17 1027.4 4.4 3.9 7.5 69 0.0 0 0 N 8 18 --- ---
Marnitz 81 1027.1 4.1 3.0 6.5 68 0.0 0 0 NO 13 22 --- ---
Waren 70 1026.6 4.0 2.9 5.8 67 0.0 0 0 N 11 24 --- ---
Neuruppin 38 1025.6 4.4 3.6 5.8 70 0.0 0 0 N 13 25 --- ---
Angermünde 56 1024.6 4.3 2.9 4.3 83 0.0 1 0 N 12 23 --- ---
Münster/Osnabr.-Flh. 48 1029.0 3.2 1.9 7.7 82 0.0 0 0 W 5 8 bewölkt ---
Hannover-Flh. 59 1027.9 3.5 2.3 7.2 72 0.0 0 0 N 12 15 bewölkt ---
Magdeburg 76 1026.2 4.6 3.1 6.8 63 0.0 0 0 N 10 19 --- ---
Potsdam 81 1025.1 4.2 1.9 4.9 72 0.0 0 0 N 11 34 --- ---
Berlin-Tegel 37 1024.9 4.3 2.2 5.0 71 0.0 0 0 N 12 22 bewölkt ---
Berlin-Tempelhof 48 1024.7 4.3 1.9 4.3 75 0.0 0 --- N 17 26 --- ---
Berlin-Dahlem 51 1024.6 4.3 1.9 4.9 --- ---- 0 0 N 14 --- stark bewölkt ---
Lindenberg 91 1023.8 3.2 0.9 3.2 92 0.1 2 0 N 10 17 Regen ---
Düsseldorf-Flh. 45 1028.7 3.5 0.4 8.4 77 0.0 0 0 N 5 13 heiter ---
Essen 150 1028.7 3.7 3.0 7.4 74 0.0 0 0 N 9 13 --- ---
Kahler Asten 839 ------ -2.4 -2.9 0.2 87 0.0 0 9 N 22 35 Schneefall ---
Bad Lippspringe 157 1028.2 1.9 0.7 6.7 87 0.0 0 0 NO 3 5 --- ---
Fritzlar 174 1027.4 2.8 1.9 6.1 70 ---- 0 0 NW 7 --- stark bewölkt ---
Brocken 1142 ------ -4.5 -5.4 -3.7 91 ---- --- --- N 56 66 Schneegriesel Sturmböen
Leipzig-Flh. 142 1025.5 3.3 1.6 4.5 75 0.0 0 0 N 15 23 Regen ---
Dresden-Flh. 227 1024.6 0.3 0.1 2.0 96 0.4 3 0 NW 12 18 leichter Schneefall ---
Cottbus 69 1023.6 2.3 1.4 2.4 97 0.3 3 0 NW 5 15 leichter Regen ---
Görlitz 238 1023.2 0.9 0.1 0.9 97 0.0 2 0 NW 8 17 Regen ---
Aachen 231 1028.9 0.6 -0.1 6.7 83 0.0 0 0 SO 4 9 --- ---
Nürburg 485 1028.3 -0.5 -2.4 3.2 85 0.0 0 0 N 5 13 --- ---
Köln/Bonn-Flh. 92 1028.4 2.7 -0.7 8.1 79 0.0 0 0 N 5 9 heiter ---
Gießen/Wettenberg 203 1027.3 3.1 1.2 5.5 69 0.0 0 0 N 17 30 --- ---
Wasserkuppe 921 ------ -3.3 -3.5 -1.9 96 0.0 1 2 NO 19 28 leichter Schneefall ---
Meiningen 450 1027.0 -0.3 -0.4 1.9 90 0.0 0 0 N 11 20 leichter Schneefall ---
Erfurt 316 1026.5 1.7 0.6 3.1 79 0.0 0 0 NW 11 16 Schneefall ---
Gera 311 1025.9 0.3 -0.1 1.8 98 0.2 1 0 NW 8 17 leichter Schneefall ---
Fichtelberg 1213 ------ -5.6 -5.7 -4.8 94 0.1 4 53 NW 33 43 Schneefall ---
Trier 265 1027.6 0.5 -0.6 5.9 83 0.0 0 0 N 10 18 --- ---
Hahn-Flh. 497 1027.4 0.1 -0.3 3.1 78 0.0 0 0 -- --- --- --- ---
Frankfurt/M-Flh. 112 1026.6 4.4 1.8 7.7 64 0.0 0 0 N 17 27 bewölkt ---
OF-Wetterpark 119 1026.6 3.7 1.2 7.2 70 0.0 0 0 N 8 15 --- ---
Würzburg 268 1026.6 2.6 1.6 6.0 76 0.0 0 0 NO 8 18 --- ---
Bamberg 239 1026.1 1.8 0.4 5.3 87 0.0 0 0 N 8 16 --- ---
Hof 567 1025.7 -0.9 -1.4 0.7 93 0.2 2 0 N 13 20 leichter Schneefall ---
Weiden 438 1025.5 -0.1 -1.0 2.8 91 0.0 0 0 NO 3 5 --- ---
Saarbrücken-Flh. 320 1026.7 1.6 0.9 6.4 73 0.0 0 0 NO 12 18 stark bewölkt ---
Karlsruhe-Rheinst. 116 1026.4 0.7 -1.8 7.4 86 0.0 0 0 O 4 5 --- ---
Mannheim 96 1026.4 3.5 1.1 7.3 73 0.0 0 0 N 7 15 --- ---
Stuttgart-Flh. 371 1026.0 0.4 -1.9 5.8 76 0.0 0 0 N 2 8 heiter ---
Öhringen 276 1026.3 0.3 -1.8 5.8 83 0.0 0 0 S 2 6 --- ---
Nürnberg-Flh. 314 1025.5 1.6 1.2 5.3 85 0.0 0 0 N 9 17 Schneefall ---
Regensburg 366 1025.5 -0.7 -2.2 4.7 88 0.0 0 0 N 5 8 Schneegriesel ---
Straubing 351 1025.1 0.3 -1.6 4.5 80 0.0 0 0 W 8 13 --- ---
Großer Arber 1436 ------ -6.2 -6.8 -5.7 93 0.0 0 125 NW 12 21 gefrierender Nebel ---
Lahr 155 1025.5 0.8 -1.2 7.2 79 0.0 0 0 NO 6 10 --- ---
Freudenstadt 797 ------ -2.3 -3.4 0.6 82 0.0 0 0 NO 15 24 --- ---
Stötten 734 1026.2 -1.6 -3.5 1.5 85 0.0 0 0 O 10 19 --- ---
Augsburg 462 1026.1 -2.4 -5.3 3.8 82 0.0 0 0 N 3 4 --- ---
München-Flh. 444 1025.8 -1.3 -6.4 4.6 77 0.0 0 0 W 3 5 heiter ---
Fürstenzell 476 1025.2 -1.4 -2.3 3.8 85 0.0 0 0 SW 6 9 --- ---
Feldberg/Schw. 1486 ------ -7.3 -7.8 -4.6 93 0.0 0 54 O 46 56 wolkenlos Windböen
Konstanz 443 1024.2 1.6 -0.1 6.0 66 0.0 0 0 NO 11 18 wolkenlos ---
Kempten 705 1024.9 -1.7 -5.0 3.2 78 0.0 0 0 NO 4 12 wolkenlos ---
Oberstdorf 806 ------ -5.2 -6.4 2.2 87 0.0 0 0 S 3 9 wolkenlos ---
Zugspitze 2960 ------ -14.9 -17.6 -14.9 57 ---- --- 415 -- --- ---   ---
Hohenpeißenberg 977 ------ -3.8 -4.4 -0.1 91 0.0 0 0 NO 14 25 wolkenlos ---

                                                                                                      Tabelle: 20 UHR  

STATIONHÖHELUFTD.TEMP.T-MinT-MaxU%RR1RR12SSSDDFFFXWetter+WolkenBöen
UFS TW Ems 0 1029.7 6.3 5.9 6.6 --- ---- --- --- N 25 --- --- ---
UFS Deutsche Bucht 26 1028.9 6.7 5.7 7.0 81 ---- --- --- N 25 --- --- ---
Helgoland 4 1028.6 7.0 5.9 8.3 78 0.0 0 0 N 20 27 wolkenlos ---
List/Sylt 26 1027.8 6.9 4.0 11.7 69 0.0 0 0 N 32 47 wolkenlos ---
Schleswig 43 1027.4 8.9 3.2 11.5 45 0.0 0 0 NO 7 24 --- ---
Leuchtturm Kiel 5 1027.4 7.3 5.5 9.4 60 ---- --- --- N 12 18 --- ---
Kiel 27 1027.2 7.6 5.2 10.2 55 0.0 0 0 NO 11 16 --- ---
Fehmarn 3 1026.9 7.0 5.2 9.2 73 0.0 0 0 N 19 30 --- ---
Arkona 42 1025.7 6.3 4.6 8.2 71 0.0 0 0 NW 18 25 --- ---
Norderney 11 1028.7 6.8 6.2 8.4 78 0.0 0 0 N 27 31 wolkenlos ---
Leuchtt. Alte Weser 32 1027.9 7.1 5.2 7.6 72 ---- --- --- N 32 --- --- ---
Cuxhaven 5 1027.5 7.9 5.3 10.7 71 0.0 0 0 NW 29 39 wolkenlos ---
Hamburg-Flh 11 1027.2 8.5 2.5 11.4 47 0.0 0 0 NO 17 30 stark bewölkt ---
Schwerin 59 1026.4 7.3 4.9 10.6 58 0.0 0 0 N 12 55 --- Windböen
Rostock 4 1026.4 7.1 5.5 9.7 71 0.0 0 0 NW 15 17 --- ---
Greifswald 2 1025.4 7.3 4.9 8.8 61 0.0 0 0 NW 11 23 --- ---
Emden 0 1028.2 7.6 2.6 11.5 62 0.0 0 0 N 18 30 wolkenlos ---
Bremen-Flh. 5 1026.8 9.6 5.3 12.2 43 0.0 0 0 N 22 35 heiter ---
Lüchow 17 1026.0 8.4 4.4 11.5 50 0.0 0 0 N 12 29 --- ---
Marnitz 81 1025.7 8.0 4.3 10.9 43 0.0 0 0 NO 17 30 --- ---
Waren 70 1025.5 7.2 3.9 11.0 53 0.0 0 0 N 7 23 --- ---
Neuruppin 38 1024.8 7.9 4.4 11.7 47 0.0 0 0 N 18 32 --- ---
Angermünde 56 1024.1 6.2 4.3 10.0 67 0.0 0 0 N 12 29 --- ---
Münster/Osnabr.-Flh. 48 1025.9 10.0 3.1 12.9 50 0.0 0 0 NO 16 31 heiter ---
Hannover-Flh. 59 1026.2 8.2 3.6 12.2 48 0.0 0 0 NO 13 27 bewölkt ---
Magdeburg 76 1024.8 9.1 4.6 11.4 45 0.0 0 0 N 6 23 --- ---
Potsdam 81 1024.0 8.3 4.2 13.0 44 0.0 0 0 N 17 37 --- ---
Berlin-Tegel 37 1024.2 8.1 4.3 11.9 46 0.0 0 0 N 17 33 stark bewölkt ---
Berlin-Tempelhof 48 1024.0 8.0 4.3 11.6 50 0.0 0 --- N 22 37 --- ---
Berlin-Dahlem 51 1023.9 8.2 4.3 11.9 --- ---- 0 0 N 22 --- stark bewölkt ---
Lindenberg 91 1023.2 7.3 3.2 10.5 55 0.0 0 0 N 10 27 --- ---
Düsseldorf-Flh. 45 1025.5 11.6 3.5 13.1 40 0.0 0 0 NO 8 21 heiter ---
Essen 150 1025.5 10.6 3.6 11.6 43 0.0 0 0 N 17 27 --- ---
Kahler Asten 839 ------ 3.1 -2.5 4.7 57 0.0 0 6 N 19 29 --- ---
Bad Lippspringe 157 1025.2 10.0 1.9 11.7 44 0.0 0 0 NO 15 24 --- ---
Fritzlar 174 1024.6 9.8 2.8 11.3 38 ---- 0 0 NO 7 --- stark bewölkt ---
Brocken 1142 ------ -1.1 -4.6 0.5 75 ---- --- --- N 34 40 --- ---
Leipzig-Flh. 142 1024.0 7.6 3.1 9.1 55 0.0 0 0 NW 7 11 stark bewölkt ---
Dresden-Flh. 227 1023.1 6.6 0.3 --- 61 0.0 0 0 W 13 22 bedeckt ---
Cottbus 69 1022.7 7.9 2.4 10.5 54 0.0 0 0 N 13 23 --- ---
Görlitz 238 1022.5 5.2 0.8 5.4 87 0.1 0 0 NW 5 17   ---
Aachen 231 1025.8 7.9 0.6 10.4 50 0.0 0 0 N 13 24 --- ---
Nürburg 485 1025.2 6.0 -0.6 6.7 53 0.0 0 0 N 12 24 --- ---
Köln/Bonn-Flh. 92 1025.3 10.7 2.7 11.3 40 0.0 0 0 NO 12 22 stark bewölkt ---
Gießen/Wettenberg 203 1025.1 6.8 3.1 8.6 67 0.0 0 0 SW 6 10 --- ---
Wasserkuppe 921 ------ 1.5 -3.4 1.7 65 0.0 0 0 NO 16 26 --- ---
Meiningen 450 1025.1 5.2 -0.3 6.2 61 0.0 0 0 N 12 23 --- ---
Erfurt 316 1024.8 6.5 1.8 8.6 65 0.0 0 0 N 3 13 stark bewölkt ---
Gera 311 1024.5 5.5 0.4 6.7 72 0.0 0 0 NW 6 18 --- ---
Fichtelberg 1213 ------ -2.6 -5.6 -2.6 97 0.0 1 53 NW 33 41 gefrierender Nebel ---
Trier 265 1025.2 6.9 0.5 8.3 60 0.0 0 0 NO 13 25 --- ---
Hahn-Flh. 497 1025.3 4.7 0.1 6.5 64 0.0 0 0 -- --- --- --- ---
Frankfurt/M-Flh. 112 1025.0 8.3 4.4 8.6 52 0.0 0 0 O 3 14 stark bewölkt ---
OF-Wetterpark 119 1025.0 7.6 3.7 8.5 60 0.0 0 0 O 5 8 --- ---
Würzburg 268 1025.7 5.2 2.5 5.9 71 0.0 0 0 O 5 12 Regen ---
Bamberg 239 1025.1 4.9 1.8 5.1 76 0.0 0 0 N 4 11 --- ---
Hof 567 1024.8 2.5 -0.9 2.7 86 0.0 1 0 N 5 10 Regen ---
Weiden 438 1024.8 2.7 -0.1 4.3 80 0.0 0 0 N 12 23 leichter Regen ---
Saarbrücken-Flh. 320 1025.3 5.0 1.6 7.0 69 0.0 0 0 NO 21 36 leichter Regen ---
Karlsruhe-Rheinst. 116 1024.9 6.5 0.8 7.4 60 0.0 0 0 NO 12 23 --- ---
Mannheim 96 1025.3 7.0 3.6 8.3 62 0.0 0 0 NO 8 15 --- ---
Stuttgart-Flh. 371 1024.7 4.3 0.3 5.6 68 0.0 0 0 N 13 26 bedeckt ---
Öhringen 276 1025.3 4.7 0.1 6.4 72 0.0 0 0 NO 10 19 --- ---
Nürnberg-Flh. 314 1024.9 4.3 1.6 5.2 73 0.0 0 0 N 13 19 bedeckt ---
Regensburg 366 1023.8 5.1 -0.7 9.2 66 0.0 0 0 N 9 20 --- ---
Straubing 351 1023.3 6.1 0.4 7.6 61 0.0 0 0 NW 9 19 --- ---
Großer Arber 1436 ------ -3.9 -6.2 -2.9 96 0.0 0 124 N 18 27 gefrierender Nebel ---
Lahr 155 1024.1 6.4 0.8 9.2 59 0.0 0 0 NO 19 31 --- ---
Freudenstadt 797 ------ 0.8 -2.3 2.2 73 0.0 0 0 NO 12 27 --- ---
Stötten 734 1025.2 1.0 -1.7 2.4 79 0.0 0 0 NO 15 22 --- ---
Augsburg 462 1024.1 2.7 -2.3 5.9 67 0.0 0 0 N 12 19 wolkenlos ---
München-Flh. 444 1023.5 4.6 -1.3 7.9 58 0.0 0 0 N 8 17 heiter ---
Fürstenzell 476 1022.9 5.1 -1.3 6.6 60 0.0 0 0 NW 5 10 --- ---
Feldberg/Schw. 1486 ------ -4.7 -7.4 -1.4 86 0.0 0 54 O 32 39 wolkenlos ---
Konstanz 443 1022.2 5.8 1.6 9.5 51 0.0 0 0 NO 19 32 --- ---
Kempten 705 1022.3 3.8 -1.7 7.5 59 0.0 0 0 NO 10 23 --- ---
Oberstdorf 806 ------ 4.8 -5.3 8.0 52 0.0 0 0 N 17 25 --- ---
Zugspitze 2960 ------ -11.9 -14.9 --- 66 ---- --- --- SW 5 13 wolkenlos ---
Hohenpeißenberg 977 ------ 0.6 -3.9 4.5 68 0.0 0 0 NO 21 32 wolkenlos ---

  

  • Wetterzustand
  • Windrichtung und -geschwindigkeit
  • Luftdruck
  • relative Luftfeuchtigkeit
  • Sichtweite
  • Gesamtbedeckungsgrad
  • Niederschlag
  • Sonnenscheindauer

 Höhe:     m über NN
Luftd.:   auf Meereshöhe reduzierter Luftdruck in hPa
TEMP.:   Lufttemperatur in Grad Celsius
T-MIN:   Minimumtemperatur der Luft in 2m Höhe in Grad Celsius, von 18 UTC Vortag bis 06 UTC heute
T-MAX:  Maximumtemperatur der Luft in 2m Höhe in Grad Celsius, von 18 UTC Vortag bis 06 UTC heute
RR1:     Niederschlagsmenge, einstündig, mm ist gleich Liter pro
RR12:   Niederschlagsmenge, 12 stündig, 18 UTC Vortag bis 06 UTC heute in mm ist gleich Liter pro
SSS:     Gesamtschneehöhe
DD:      Windrichtung
FF:       Windgeschwindigkeit letztes 10-Minutenmittel in km/h
FX:       höchste Windspitze während der letzten Stunde in km/h
---:      Wert nicht vorhanden

 

2009-2021

Unwetterwarnungen

 

  Radarbild           

aktueller Radarfilm Deutschland

  Europa-Meteoalarm